Bayport, New York
Current Conditions -  °F | °C
As of 4:56 PM on Monday 26 Jan 2015 (Local Time) from KISP Reporting Station
Light Snow Light Snow  
Wind Chill: 13°   Ceiling: 1200
Heat Index: 27°   Visibility: 0.75mi
Dew Point: 24°   Wind: 21mph
Humidity: 89%   Direction: 30°NNE
Pressure: 29.82"   Gusts: NA
Location:  40.74°N, 73.06°W
Report Text: KISP 262156Z 03018KT 3/4SM R06/5000V6000FT -SN BR FEW000 OVC012 M03/M04 A2982 RMK AO2 SFC VIS 1 SLP098 SN FEW000 P0003 T10281044
Loading
Personal Weather Stations






























Interactive Weather Map New forecast layout! Learn more

10-Day Weather Forecast

Advertisements
Track Severe Weather on mobile